Terminal Aerodrome Forecast
Issued by NWS Jackson, MS

Home | Current Version | Previous Version | Text Only | Print | Product List | Glossary On
Versions: 1 2 3 4 5 6 7 8 9 10 11 12
608
FTUS44 KJAN 301124
TAFHBG
TAF
KHBG 301124Z 3012/0112 30003KT P6SM SKC
     FM301700 34005KT P6SM SCT060=

USA.gov is the U.S. government's official web portal to all federal, state and local government web resources and services.